Time;durP1;ratioP1;P1;durP2;ratioP2;P2;SDS_P1;SDS_P2;PMS_P1;PMS_P2;Temp;Humidity;BMP_temperature;BMP_pressure;BME280_temperature;BME280_humidity;BME280_pressure;Samples;Min_cycle;Max_cycle;Signal;HPM_P1;HPM_P2
2024/03/16 06:16:34;;;;;;;;;10.25;10.25;;;;;;;;5626928;22;12336;-68
2024/03/16 06:18:59;;;;;;;;;11.50;11.50;;;;;;;;5044645;28;11514;-68
2024/03/16 06:21:24;;;;;;;;;17.25;13.75;;;;;;;;5033498;28;8873;-68
2024/03/16 06:23:49;;;;;;;;;16.75;15.00;;;;;;;;5033271;28;8795;-68
2024/03/16 06:26:18;;;;;;;;;22.00;19.00;;;;;;;;5033124;28;8784;-69
2024/03/16 06:28:52;;;;;;;;;14.25;13.00;;;;;;;;5033327;28;8830;-68
2024/03/16 06:31:25;;;;;;;;;15.25;14.75;;;;;;;;5033033;28;11689;-69
2024/03/16 06:33:51;;;;;;;;;14.00;11.50;;;;;;;;5033041;28;11528;-69
2024/03/16 06:36:16;;;;;;;;;10.50;10.50;;;;;;;;5032987;28;11532;-70
2024/03/16 06:38:42;;;;;;;;;14.75;14.25;;;;;;;;5033014;28;8799;-70
2024/03/16 06:41:07;;;;;;;;;13.75;11.00;;;;;;;;5032907;28;8826;-69
2024/03/16 06:43:33;;;;;;;;;12.50;11.25;;;;;;;;5032940;28;8795;-69
2024/03/16 06:46:00;;;;;;;;;15.00;11.50;;;;;;;;5032880;28;8776;-70
2024/03/16 06:48:25;;;;;;;;;7.25;7.25;;;;;;;;5048946;28;11528;-70
2024/03/16 06:50:51;;;;;;;;;12.00;11.50;;;;;;;;5052736;28;11509;-69
2024/03/16 06:53:17;;;;;;;;;15.25;12.00;;;;;;;;5052856;28;8827;-69
2024/03/16 06:55:47;;;;;;;;;15.00;15.00;;;;;;;;5056987;28;9500;-69
2024/03/16 06:58:13;;;;;;;;;12.00;12.00;;;;;;;;5072680;28;8782;-70
2024/03/16 07:00:38;;;;;;;;;12.75;12.75;;;;;;;;5072685;28;12114;-67
2024/03/16 07:03:05;;;;;;;;;17.50;13.50;;;;;;;;5072312;28;11641;-69
2024/03/16 07:05:31;;;;;;;;;12.75;12.25;;;;;;;;5046014;28;8798;-69
2024/03/16 07:07:57;;;;;;;;;13.00;13.00;;;;;;;;5033765;28;11681;-70
2024/03/16 07:10:23;;;;;;;;;14.75;14.50;;;;;;;;5032460;28;8807;-69
2024/03/16 07:12:48;;;;;;;;;16.50;12.75;;;;;;;;5032533;28;11533;-70
2024/03/16 07:15:15;;;;;;;;;14.25;12.25;;;;;;;;5032282;28;8780;-69
2024/03/16 07:17:40;;;;;;;;;12.50;12.00;;;;;;;;5039984;28;8819;-69
2024/03/16 07:20:07;;;;;;;;;16.00;15.50;;;;;;;;5042308;28;11665;-70
2024/03/16 07:22:32;;;;;;;;;13.75;11.50;;;;;;;;5030898;28;8924;-69
2024/03/16 07:24:57;;;;;;;;;15.00;13.50;;;;;;;;5032043;28;12277;-70
2024/03/16 07:27:22;;;;;;;;;14.50;12.00;;;;;;;;5032318;28;8902;-74
2024/03/16 07:29:48;;;;;;;;;16.75;12.75;;;;;;;;5032126;28;8847;-76
2024/03/16 09:54:21;;;;;;;;;14.00;11.00;;;;;;;;5097002;27;13523;-70
2024/03/16 09:56:49;;;;;;;;;13.00;12.25;;;;;;;;5066223;28;11520;-70
2024/03/16 09:59:16;;;;;;;;;16.00;13.00;;;;;;;;5066306;28;11542;-71
2024/03/16 10:01:41;;;;;;;;;12.75;12.50;;;;;;;;4936077;28;11592;-71
2024/03/16 10:04:06;;;;;;;;;11.00;9.25;;;;;;;;5018199;28;11581;-70
2024/03/16 10:06:32;;;;;;;;;14.50;13.00;;;;;;;;5004742;28;8855;-69
2024/03/16 10:09:10;;;;;;;;;11.75;11.00;;;;;;;;5006395;28;8821;-70
2024/03/16 10:11:36;;;;;;;;;11.50;11.50;;;;;;;;5007880;28;8831;-71
2024/03/16 10:14:04;;;;;;;;;13.75;11.75;;;;;;;;5007669;28;11517;-71
2024/03/16 10:16:31;;;;;;;;;10.50;8.75;;;;;;;;5007876;28;9668;-69
2024/03/16 10:18:56;;;;;;;;;13.00;12.00;;;;;;;;5006318;28;11315;-68
2024/03/16 10:21:21;;;;;;;;;11.00;10.50;;;;;;;;5007524;28;11570;-68
2024/03/16 10:23:47;;;;;;;;;7.25;7.00;;;;;;;;5007378;28;8821;-69
2024/03/16 10:26:13;;;;;;;;;7.75;7.75;;;;;;;;5007451;28;8821;-68
2024/03/16 10:28:38;;;;;;;;;10.75;10.75;;;;;;;;5007574;28;8828;-68
2024/03/16 10:31:03;;;;;;;;;7.00;7.00;;;;;;;;5007433;28;8824;-68
2024/03/16 10:33:28;;;;;;;;;13.00;12.50;;;;;;;;5005914;28;9598;-68
2024/03/16 10:35:56;;;;;;;;;13.00;12.75;;;;;;;;5007554;28;8839;-69
2024/03/16 10:38:23;;;;;;;;;12.00;10.50;;;;;;;;5006893;28;8813;-69
2024/03/16 10:40:49;;;;;;;;;13.00;11.50;;;;;;;;5007363;28;11361;-69
2024/03/16 10:43:15;;;;;;;;;12.00;8.75;;;;;;;;5006150;28;11497;-68
2024/03/16 10:45:50;;;;;;;;;10.00;10.00;;;;;;;;5006024;28;11545;-67
2024/03/16 10:48:15;;;;;;;;;11.50;11.00;;;;;;;;5007400;28;11464;-68
2024/03/16 10:50:46;;;;;;;;;10.00;10.00;;;;;;;;5007228;28;11468;-67
2024/03/16 10:53:12;;;;;;;;;11.00;11.00;;;;;;;;5005808;28;8833;-69
2024/03/16 10:55:39;;;;;;;;;11.00;11.00;;;;;;;;5006300;28;11477;-68
2024/03/16 10:58:08;;;;;;;;;12.00;10.75;;;;;;;;5005683;28;11502;-70
2024/03/16 11:00:36;;;;;;;;;8.25;7.75;;;;;;;;5005848;28;11497;-70
2024/03/16 11:03:09;;;;;;;;;10.75;10.00;;;;;;;;5007229;28;11674;-67
2024/03/16 11:05:48;;;;;;;;;11.75;11.00;;;;;;;;4994544;28;11457;-68
2024/03/16 11:08:13;;;;;;;;;10.25;9.00;;;;;;;;4994022;28;11214;-67
2024/03/16 11:10:39;;;;;;;;;10.50;10.50;;;;;;;;4994015;28;12020;-67
2024/03/16 11:13:15;;;;;;;;;13.00;13.00;;;;;;;;4993607;28;8836;-69
2024/03/16 11:15:41;;;;;;;;;11.25;11.25;;;;;;;;4991194;28;11531;-69
2024/03/16 11:18:21;;;;;;;;;12.00;11.25;;;;;;;;4989342;28;11569;-70
2024/03/16 11:20:50;;;;;;;;;8.50;7.25;;;;;;;;4993317;28;8816;-72
2024/03/16 11:23:23;;;;;;;;;12.00;12.00;;;;;;;;4993085;28;11541;-69
2024/03/16 11:25:48;;;;;;;;;10.50;9.25;;;;;;;;4983714;28;11523;-70
2024/03/16 11:28:17;;;;;;;;;11.00;11.00;;;;;;;;4992045;28;11482;-75
2024/03/16 11:30:43;;;;;;;;;11.00;10.00;;;;;;;;4992296;28;9566;-73
2024/03/16 11:33:17;;;;;;;;;8.00;8.00;;;;;;;;4992447;28;11232;-71
2024/03/16 11:35:43;;;;;;;;;11.00;10.50;;;;;;;;4992549;28;8829;-70
2024/03/16 11:38:12;;;;;;;;;10.75;8.50;;;;;;;;4992526;28;11350;-69
2024/03/16 11:40:38;;;;;;;;;10.00;10.00;;;;;;;;4993349;28;8918;-68
2024/03/16 11:43:03;;;;;;;;;14.25;12.00;;;;;;;;4993202;28;11894;-68
2024/03/16 11:45:33;;;;;;;;;13.75;12.50;;;;;;;;4993265;28;8789;-71
2024/03/16 11:47:58;;;;;;;;;11.00;11.00;;;;;;;;4989611;28;11397;-73
2024/03/16 11:50:25;;;;;;;;;9.50;8.00;;;;;;;;4985646;28;11612;-73
2024/03/16 11:52:51;;;;;;;;;8.00;8.00;;;;;;;;4992806;28;8875;-72
2024/03/16 11:55:19;;;;;;;;;13.00;8.00;;;;;;;;4992988;28;11094;-72
2024/03/16 11:57:44;;;;;;;;;8.25;8.25;;;;;;;;4992871;28;12298;-73
2024/03/16 12:00:12;;;;;;;;;9.00;7.75;;;;;;;;4993039;28;10860;-72
2024/03/16 12:02:38;;;;;;;;;10.25;7.00;;;;;;;;4990633;28;8832;-73
2024/03/16 12:05:04;;;;;;;;;9.00;8.00;;;;;;;;4991368;28;10963;-73
2024/03/16 12:07:30;;;;;;;;;7.50;7.50;;;;;;;;4990708;28;8805;-74
2024/03/16 12:09:55;;;;;;;;;10.00;10.00;;;;;;;;4991996;28;10951;-72
2024/03/16 12:12:21;;;;;;;;;13.50;8.75;;;;;;;;4992030;28;8833;-71
2024/03/16 12:15:06;;;;;;;;;13.50;11.50;;;;;;;;4992601;28;8793;-70
2024/03/16 12:17:31;;;;;;;;;11.50;9.50;;;;;;;;4991595;28;8838;-72
2024/03/16 12:19:57;;;;;;;;;12.25;12.00;;;;;;;;4992297;28;11073;-72
2024/03/16 12:22:23;;;;;;;;;12.50;12.00;;;;;;;;4992735;28;8821;-73
2024/03/16 12:24:51;;;;;;;;;12.50;12.50;;;;;;;;4992518;28;8808;-72
2024/03/16 12:27:16;;;;;;;;;9.00;9.00;;;;;;;;4992509;28;8827;-72
2024/03/16 12:29:45;;;;;;;;;8.00;8.00;;;;;;;;5007278;28;12296;-72
2024/03/16 12:32:10;;;;;;;;;9.00;9.00;;;;;;;;4990828;28;8805;-72
2024/03/16 12:34:35;;;;;;;;;23.50;23.25;;;;;;;;4973409;28;11051;-73
2024/03/16 12:37:01;;;;;;;;;14.25;14.00;;;;;;;;4972724;28;8792;-73
2024/03/16 12:39:26;;;;;;;;;18.00;15.00;;;;;;;;4973625;28;9914;-76
2024/03/16 12:41:52;;;;;;;;;13.00;10.75;;;;;;;;5021609;28;8809;-74
2024/03/16 12:44:17;;;;;;;;;8.00;8.00;;;;;;;;4990388;28;8824;-75
2024/03/16 12:46:43;;;;;;;;;12.25;9.00;;;;;;;;4994569;28;11449;-73
2024/03/16 12:49:08;;;;;;;;;8.75;8.75;;;;;;;;4991119;28;8904;-72
2024/03/16 12:51:35;;;;;;;;;10.50;9.00;;;;;;;;5021458;28;9578;-70
2024/03/16 12:54:01;;;;;;;;;9.25;8.25;;;;;;;;4992946;28;8832;-71
2024/03/16 12:56:26;;;;;;;;;12.00;11.25;;;;;;;;4991384;28;11503;-72
2024/03/16 12:58:51;;;;;;;;;13.00;11.75;;;;;;;;4991270;28;8793;-71
2024/03/16 13:01:18;;;;;;;;;14.75;14.00;;;;;;;;4989303;28;8797;-69
2024/03/16 13:03:49;;;;;;;;;14.00;12.00;;;;;;;;4990616;28;8805;-70
2024/03/16 13:06:15;;;;;;;;;11.00;9.00;;;;;;;;4990685;28;11513;-70
2024/03/16 13:08:40;;;;;;;;;16.00;13.75;;;;;;;;4991067;28;12141;-74
2024/03/16 13:11:06;;;;;;;;;21.25;17.50;;;;;;;;4992467;28;8809;-70
2024/03/16 13:13:31;;;;;;;;;12.50;12.50;;;;;;;;4991635;28;8833;-72
2024/03/16 13:15:56;;;;;;;;;18.75;17.00;;;;;;;;4991636;28;8801;-75
2024/03/16 13:18:21;;;;;;;;;13.00;12.00;;;;;;;;4991297;28;8797;-71
2024/03/16 13:20:47;;;;;;;;;13.00;9.00;;;;;;;;4993946;28;8797;-70
2024/03/16 13:23:12;;;;;;;;;12.50;11.50;;;;;;;;4981535;28;8870;-72
2024/03/16 13:25:38;;;;;;;;;13.50;11.75;;;;;;;;4990877;28;8805;-72
2024/03/16 13:28:04;;;;;;;;;11.75;11.75;;;;;;;;4990670;28;8808;-70
2024/03/16 13:30:29;;;;;;;;;13.50;12.00;;;;;;;;4990865;28;9473;-71
2024/03/16 13:32:54;;;;;;;;;12.00;9.50;;;;;;;;4990349;28;8829;-72
2024/03/16 13:35:19;;;;;;;;;10.25;9.00;;;;;;;;4989658;28;8805;-72
2024/03/16 13:37:45;;;;;;;;;14.50;11.75;;;;;;;;4990142;28;8809;-72
2024/03/16 13:40:10;;;;;;;;;15.50;14.00;;;;;;;;4989032;28;8801;-72
2024/03/16 13:42:35;;;;;;;;;12.00;11.75;;;;;;;;5014874;28;9982;-70
2024/03/16 13:45:01;;;;;;;;;11.75;11.75;;;;;;;;4990816;28;8817;-72
2024/03/16 13:47:27;;;;;;;;;12.25;9.00;;;;;;;;4991181;28;9547;-72
2024/03/16 13:49:52;;;;;;;;;12.00;10.25;;;;;;;;4992222;28;8845;-73
2024/03/16 13:52:17;;;;;;;;;9.00;8.00;;;;;;;;5009156;28;12605;-79
2024/03/16 13:54:43;;;;;;;;;11.75;9.00;;;;;;;;5005027;28;8793;-72
2024/03/16 13:57:09;;;;;;;;;12.00;10.75;;;;;;;;4989845;28;8793;-70
2024/03/16 13:59:34;;;;;;;;;8.50;8.00;;;;;;;;4991193;28;8797;-73
2024/03/16 14:02:00;;;;;;;;;8.75;8.75;;;;;;;;4988714;28;8852;-73
2024/03/16 14:04:25;;;;;;;;;8.00;8.00;;;;;;;;4990987;28;8801;-72
2024/03/16 14:06:51;;;;;;;;;11.00;8.00;;;;;;;;4988702;28;8796;-77
2024/03/16 14:09:20;;;;;;;;;8.00;8.00;;;;;;;;4986699;28;8804;-77
2024/03/16 14:11:45;;;;;;;;;7.00;7.00;;;;;;;;4998162;28;10995;-77
2024/03/16 14:14:10;;;;;;;;;8.25;7.75;;;;;;;;5008711;28;11205;-81
2024/03/16 14:16:36;;;;;;;;;11.00;10.00;;;;;;;;5003199;28;8813;-80
2024/03/16 14:19:02;;;;;;;;;11.00;10.25;;;;;;;;4957077;28;11609;-80
2024/03/16 14:21:28;;;;;;;;;9.25;9.00;;;;;;;;4990301;28;11239;-81
2024/03/16 14:23:54;;;;;;;;;11.50;11.50;;;;;;;;4988868;28;8902;-76
2024/03/16 14:26:19;;;;;;;;;11.00;11.00;;;;;;;;4985086;28;11198;-76
2024/03/16 14:28:44;;;;;;;;;10.75;9.00;;;;;;;;4989318;28;8847;-78
2024/03/16 14:31:09;;;;;;;;;9.50;9.00;;;;;;;;4988436;28;8817;-81
2024/03/16 14:33:37;;;;;;;;;10.00;9.00;;;;;;;;5022428;28;8859;-82
2024/03/16 14:36:03;;;;;;;;;8.50;8.50;;;;;;;;4990060;28;8875;-78
2024/03/16 14:38:28;;;;;;;;;12.50;8.75;;;;;;;;4989966;28;11654;-80
2024/03/16 14:40:54;;;;;;;;;7.25;7.25;;;;;;;;5027119;28;8821;-79
2024/03/16 14:43:19;;;;;;;;;8.50;8.50;;;;;;;;4993986;28;8809;-80
2024/03/16 14:45:48;;;;;;;;;11.50;8.25;;;;;;;;4994158;28;11220;-77
2024/03/16 14:48:14;;;;;;;;;8.75;8.50;;;;;;;;4993967;28;8911;-76
2024/03/16 14:50:39;;;;;;;;;7.25;7.25;;;;;;;;4993013;28;11042;-75
2024/03/16 14:53:06;;;;;;;;;8.50;8.00;;;;;;;;5025498;28;8836;-76
2024/03/16 14:55:31;;;;;;;;;9.50;8.25;;;;;;;;4993294;28;8940;-77
2024/03/16 14:57:56;;;;;;;;;11.75;10.00;;;;;;;;4993346;28;10920;-78
2024/03/16 15:00:22;;;;;;;;;8.75;8.75;;;;;;;;4994194;28;8833;-81
2024/03/16 15:02:47;;;;;;;;;10.50;7.00;;;;;;;;4993292;28;8832;-77
2024/03/16 15:05:18;;;;;;;;;9.00;8.75;;;;;;;;5024635;28;8849;-77
2024/03/16 15:07:43;;;;;;;;;11.25;8.25;;;;;;;;4993533;28;8831;-77
2024/03/16 15:10:09;;;;;;;;;9.00;7.75;;;;;;;;4989108;28;11170;-76
2024/03/16 15:12:34;;;;;;;;;12.25;9.75;;;;;;;;4996268;28;8845;-76
2024/03/16 15:14:59;;;;;;;;;11.00;8.25;;;;;;;;4993140;28;8789;-78
2024/03/16 15:17:24;;;;;;;;;10.25;8.00;;;;;;;;4993812;28;8824;-77
2024/03/16 15:19:50;;;;;;;;;8.00;8.00;;;;;;;;4992966;28;8824;-77
2024/03/16 15:22:15;;;;;;;;;7.50;7.50;;;;;;;;4994735;28;8820;-80
2024/03/16 15:24:43;;;;;;;;;9.25;6.75;;;;;;;;4993358;28;8812;-79
2024/03/16 15:29:53;;;;;;;;;7.50;7.50;;;;;;;;4992953;28;10739;-79
2024/03/16 15:32:18;;;;;;;;;9.75;8.25;;;;;;;;4991958;28;10924;-81
2024/03/16 15:34:43;;;;;;;;;9.00;9.00;;;;;;;;4993349;28;8912;-83
2024/03/16 15:37:09;;;;;;;;;9.00;8.50;;;;;;;;4993595;28;8829;-82
2024/03/16 15:39:34;;;;;;;;;8.25;7.75;;;;;;;;4993480;28;8837;-82
2024/03/16 15:42:00;;;;;;;;;10.50;9.00;;;;;;;;4991451;28;8829;-71
2024/03/16 15:44:27;;;;;;;;;12.25;9.00;;;;;;;;4993176;28;8859;-69
2024/03/16 15:46:52;;;;;;;;;9.25;8.25;;;;;;;;4993186;28;8801;-80
2024/03/16 15:49:17;;;;;;;;;11.00;9.00;;;;;;;;4993068;28;10850;-75
2024/03/16 15:51:42;;;;;;;;;8.25;8.25;;;;;;;;4994252;28;8824;-79
2024/03/16 15:54:08;;;;;;;;;10.75;9.25;;;;;;;;4992598;28;8837;-79
2024/03/16 15:56:33;;;;;;;;;11.75;9.00;;;;;;;;4991792;28;8821;-74
2024/03/16 15:58:59;;;;;;;;;9.00;9.00;;;;;;;;4993023;28;9460;-71
2024/03/16 16:01:26;;;;;;;;;11.50;11.25;;;;;;;;4982827;28;8926;-75
2024/03/16 16:03:51;;;;;;;;;10.75;9.00;;;;;;;;4994419;28;8951;-77
2024/03/16 16:06:16;;;;;;;;;9.50;9.00;;;;;;;;5023936;28;11007;-77
2024/03/16 16:08:42;;;;;;;;;11.25;8.50;;;;;;;;4990973;28;9831;-74
2024/03/16 16:11:10;;;;;;;;;12.25;10.00;;;;;;;;4990762;28;8809;-76
2024/03/16 16:13:35;;;;;;;;;8.00;8.00;;;;;;;;5021711;28;8853;-74
2024/03/16 16:16:01;;;;;;;;;9.25;8.25;;;;;;;;4992443;28;11783;-79
2024/03/16 16:18:26;;;;;;;;;9.25;8.00;;;;;;;;4989346;28;8821;-77
2024/03/16 16:20:52;;;;;;;;;12.50;8.50;;;;;;;;4991131;28;8834;-79
2024/03/16 16:23:17;;;;;;;;;8.00;8.00;;;;;;;;4987101;28;8899;-83
2024/03/16 16:25:42;;;;;;;;;10.75;10.75;;;;;;;;4990595;28;8848;-83
2024/03/16 16:28:11;;;;;;;;;12.50;10.25;;;;;;;;4990163;28;8904;-77
2024/03/16 16:30:37;;;;;;;;;9.00;9.00;;;;;;;;5021427;28;8857;-75
2024/03/16 16:33:05;;;;;;;;;12.25;11.25;;;;;;;;4989350;28;11132;-74
2024/03/16 16:35:33;;;;;;;;;16.00;10.25;;;;;;;;4990707;28;8820;-76
2024/03/16 16:37:58;;;;;;;;;10.25;9.00;;;;;;;;4991768;28;11086;-75
2024/03/16 16:40:23;;;;;;;;;8.75;7.75;;;;;;;;4993219;28;10980;-76
2024/03/16 16:42:49;;;;;;;;;10.25;10.25;;;;;;;;4991328;28;8824;-76
2024/03/16 16:45:14;;;;;;;;;12.00;8.75;;;;;;;;4992442;28;8839;-84
2024/03/16 16:47:40;;;;;;;;;12.50;12.50;;;;;;;;4992580;28;8852;-85
2024/03/16 16:50:05;;;;;;;;;12.00;11.75;;;;;;;;4991734;28;8816;-85
2024/03/16 16:52:30;;;;;;;;;13.25;12.75;;;;;;;;4991023;28;8824;-85
2024/03/16 16:54:55;;;;;;;;;11.00;9.75;;;;;;;;4991278;28;8797;-83
2024/03/16 16:57:21;;;;;;;;;10.00;10.00;;;;;;;;4990886;28;8801;-81
2024/03/16 16:59:46;;;;;;;;;11.50;11.25;;;;;;;;4991476;28;8803;-81
2024/03/16 17:02:11;;;;;;;;;14.00;12.25;;;;;;;;4990754;28;8835;-81
2024/03/16 17:04:37;;;;;;;;;14.00;14.00;;;;;;;;4991536;28;8816;-80
2024/03/16 17:07:03;;;;;;;;;12.25;12.25;;;;;;;;4991077;28;8859;-81
2024/03/16 17:09:28;;;;;;;;;17.50;12.75;;;;;;;;4991175;28;11490;-76
2024/03/16 17:11:53;;;;;;;;;16.75;13.25;;;;;;;;4991574;28;8831;-75
2024/03/16 17:14:18;;;;;;;;;16.50;14.00;;;;;;;;4991280;28;8839;-82
2024/03/16 17:16:44;;;;;;;;;14.00;12.00;;;;;;;;5011186;23;8891;-74
2024/03/16 17:19:09;;;;;;;;;18.25;16.50;;;;;;;;4989963;28;8836;-73
2024/03/16 17:21:35;;;;;;;;;13.50;13.25;;;;;;;;4977274;28;8822;-74
2024/03/16 17:24:00;;;;;;;;;21.75;17.00;;;;;;;;4971296;28;8839;-75
2024/03/16 17:26:27;;;;;;;;;21.50;16.00;;;;;;;;4969335;28;8816;-76
2024/03/16 17:28:53;;;;;;;;;26.00;24.00;;;;;;;;4973428;28;8870;-75
2024/03/16 17:31:18;;;;;;;;;25.75;22.75;;;;;;;;5009337;28;12183;-75
2024/03/16 17:33:43;;;;;;;;;26.00;24.50;;;;;;;;5024778;28;8806;-75
2024/03/16 17:36:09;;;;;;;;;29.00;28.50;;;;;;;;5009628;28;8933;-76
2024/03/16 17:38:35;;;;;;;;;28.75;27.50;;;;;;;;5009191;28;8806;-76
2024/03/16 17:41:00;;;;;;;;;23.75;21.25;;;;;;;;5007124;28;8830;-73
2024/03/16 17:43:28;;;;;;;;;28.50;27.00;;;;;;;;5009307;28;8973;-79
2024/03/16 17:45:53;;;;;;;;;93.33;81.67;;;;;;;;5009154;28;8893;-75
2024/03/16 17:48:19;;;;;;;;;59.00;49.50;;;;;;;;5009311;28;9566;-75
2024/03/16 17:50:45;;;;;;;;;55.25;45.25;;;;;;;;5009587;28;8807;-75
2024/03/16 17:53:10;;;;;;;;;47.75;39.50;;;;;;;;5009437;28;8826;-75
2024/03/16 17:55:35;;;;;;;;;34.00;32.75;;;;;;;;5009354;28;11572;-75
2024/03/16 17:58:01;;;;;;;;;32.50;28.75;;;;;;;;5009385;28;8803;-75
2024/03/16 18:00:29;;;;;;;;;24.00;24.00;;;;;;;;5009203;28;8806;-75
2024/03/16 18:02:55;;;;;;;;;29.50;24.00;;;;;;;;5010480;28;8816;-76
2024/03/16 18:05:20;;;;;;;;;28.75;26.00;;;;;;;;5009776;28;11661;-74
2024/03/16 18:07:45;;;;;;;;;29.00;27.00;;;;;;;;5009801;28;8790;-71
2024/03/16 18:10:11;;;;;;;;;71.33;57.33;;;;;;;;5009846;28;8926;-78
2024/03/16 18:12:36;;;;;;;;;27.25;23.25;;;;;;;;5025087;28;8838;-78
2024/03/16 18:15:02;;;;;;;;;23.25;19.50;;;;;;;;5010792;28;8925;-79
2024/03/16 18:17:27;;;;;;;;;23.00;23.00;;;;;;;;5024041;23;8905;-81
2024/03/16 18:19:52;;;;;;;;;21.75;21.75;;;;;;;;4994443;28;11645;-80
2024/03/16 18:22:18;;;;;;;;;21.25;18.50;;;;;;;;4994433;28;8813;-78
2024/03/16 18:24:47;;;;;;;;;20.25;18.00;;;;;;;;4993373;28;8820;-74
2024/03/16 18:27:13;;;;;;;;;21.75;18.50;;;;;;;;4994335;28;9577;-70
2024/03/16 18:29:38;;;;;;;;;13.75;9.50;;;;;;;;5007475;28;11527;-71
2024/03/16 18:32:03;;;;;;;;;24.25;22.25;;;;;;;;4993542;28;8817;-72
2024/03/16 18:34:28;;;;;;;;;22.00;20.00;;;;;;;;4993394;28;8928;-74
2024/03/16 18:36:54;;;;;;;;;24.00;22.75;;;;;;;;4983373;28;8814;-76
2024/03/16 18:39:19;;;;;;;;;33.00;27.00;;;;;;;;4979218;28;8824;-77
2024/03/16 18:41:45;;;;;;;;;28.00;26.75;;;;;;;;4975399;28;8846;-74
2024/03/16 18:44:10;;;;;;;;;27.25;26.50;;;;;;;;4982211;28;8827;-74
2024/03/16 18:46:36;;;;;;;;;27.50;27.00;;;;;;;;4982593;28;8796;-80
2024/03/16 18:49:05;;;;;;;;;23.25;21.25;;;;;;;;4973139;28;8795;-83
2024/03/16 18:51:32;;;;;;;;;45.00;40.25;;;;;;;;4974548;28;11892;-70
2024/03/16 18:53:57;;;;;;;;;33.75;33.75;;;;;;;;4989715;28;11606;-71
2024/03/16 18:56:23;;;;;;;;;35.75;32.25;;;;;;;;4974015;28;12425;-71
2024/03/16 18:58:49;;;;;;;;;30.75;27.75;;;;;;;;4973897;28;8784;-73
2024/03/16 19:01:15;;;;;;;;;31.00;27.00;;;;;;;;4993786;28;11569;-75
2024/03/16 19:03:41;;;;;;;;;28.00;27.00;;;;;;;;4988265;28;8882;-77
2024/03/16 19:06:07;;;;;;;;;34.75;28.50;;;;;;;;4982354;28;11696;-77
2024/03/16 19:08:32;;;;;;;;;44.50;39.00;;;;;;;;4981887;28;11578;-85
2024/03/16 19:10:58;;;;;;;;;40.50;37.00;;;;;;;;5005571;28;8821;-80
2024/03/16 19:13:23;;;;;;;;;40.50;37.25;;;;;;;;4984632;28;8820;-79
2024/03/16 19:15:49;;;;;;;;;51.50;40.25;;;;;;;;4982212;28;8910;-73
2024/03/16 19:18:15;;;;;;;;;45.25;40.25;;;;;;;;4983925;28;8813;-75
2024/03/16 19:20:40;;;;;;;;;48.00;40.25;;;;;;;;4981676;28;11600;-74
2024/03/16 19:23:06;;;;;;;;;51.50;41.00;;;;;;;;4983970;28;8844;-72
2024/03/16 19:25:31;;;;;;;;;43.00;39.50;;;;;;;;4982199;28;8784;-75
2024/03/16 19:27:57;;;;;;;;;46.00;41.00;;;;;;;;4981686;28;9524;-74
2024/03/16 19:30:22;;;;;;;;;49.50;41.00;;;;;;;;4983736;28;8906;-71
2024/03/16 19:32:47;;;;;;;;;47.75;39.50;;;;;;;;4982021;28;8816;-72
2024/03/16 19:35:12;;;;;;;;;67.33;53.67;;;;;;;;4982657;28;8828;-71
2024/03/16 19:37:38;;;;;;;;;94.25;81.25;;;;;;;;4983306;28;8801;-72
2024/03/16 19:40:14;;;;;;;;;68.67;54.00;;;;;;;;4974833;28;8914;-73
2024/03/16 19:42:40;;;;;;;;;48.50;43.00;;;;;;;;4973534;28;8835;-75
2024/03/16 19:45:07;;;;;;;;;47.00;41.00;;;;;;;;4973278;28;11608;-74
2024/03/16 19:47:32;;;;;;;;;36.50;30.50;;;;;;;;4973195;28;8808;-74
2024/03/16 19:49:57;;;;;;;;;31.25;27.75;;;;;;;;4972437;28;11650;-73
2024/03/16 19:52:23;;;;;;;;;31.50;27.25;;;;;;;;4978105;28;8813;-70
2024/03/16 19:54:48;;;;;;;;;32.50;28.75;;;;;;;;4985589;28;9897;-69
2024/03/16 19:57:13;;;;;;;;;33.00;27.00;;;;;;;;4981903;28;8804;-72
2024/03/16 19:59:39;;;;;;;;;30.50;28.50;;;;;;;;4986615;28;8816;-72
2024/03/16 20:02:05;;;;;;;;;32.00;27.25;;;;;;;;4981188;28;8828;-71
2024/03/16 20:04:30;;;;;;;;;34.75;27.25;;;;;;;;4981362;28;8944;-73
2024/03/16 20:06:56;;;;;;;;;26.75;26.00;;;;;;;;4977829;28;8819;-71
2024/03/16 20:09:23;;;;;;;;;29.50;29.00;;;;;;;;4971067;28;9675;-74
2024/03/16 20:11:48;;;;;;;;;33.50;29.75;;;;;;;;4971512;28;11596;-74
2024/03/16 20:14:15;;;;;;;;;32.25;30.75;;;;;;;;4977973;28;11626;-77
2024/03/16 20:16:40;;;;;;;;;28.50;26.50;;;;;;;;4950409;28;11191;-67
2024/03/16 20:19:06;;;;;;;;;35.50;30.75;;;;;;;;4959894;28;11753;-71
2024/03/16 20:21:31;;;;;;;;;29.00;26.50;;;;;;;;4990129;28;8829;-74
2024/03/16 20:23:57;;;;;;;;;32.00;30.00;;;;;;;;4982803;28;8852;-73
2024/03/16 20:26:25;;;;;;;;;32.00;31.00;;;;;;;;4981351;28;8797;-73
2024/03/16 20:28:50;;;;;;;;;31.75;28.00;;;;;;;;4984310;28;11599;-71
2024/03/16 20:31:16;;;;;;;;;33.25;31.25;;;;;;;;4982154;28;11596;-74
2024/03/16 20:33:41;;;;;;;;;37.00;33.25;;;;;;;;4972931;28;8830;-72
2024/03/16 20:36:06;;;;;;;;;33.25;31.00;;;;;;;;4972596;28;8800;-72
2024/03/16 20:38:32;;;;;;;;;36.25;32.50;;;;;;;;4979989;28;8829;-72
2024/03/16 20:40:57;;;;;;;;;40.00;35.00;;;;;;;;4991863;28;8769;-72
2024/03/16 20:43:22;;;;;;;;;36.00;34.25;;;;;;;;4991171;28;9635;-72
2024/03/16 20:45:48;;;;;;;;;37.00;32.75;;;;;;;;4982580;28;8796;-73
2024/03/16 20:48:13;;;;;;;;;35.75;32.50;;;;;;;;4972673;28;8804;-72
2024/03/16 20:50:38;;;;;;;;;29.25;29.00;;;;;;;;4972764;28;8795;-73
2024/03/16 20:53:03;;;;;;;;;30.00;27.00;;;;;;;;4972320;28;8795;-72
2024/03/16 20:55:29;;;;;;;;;30.25;27.25;;;;;;;;4972536;28;9631;-73
2024/03/16 20:57:55;;;;;;;;;34.50;30.00;;;;;;;;4972462;28;8869;-74
2024/03/16 21:00:20;;;;;;;;;30.25;27.25;;;;;;;;4985855;28;8789;-74
2024/03/16 21:02:46;;;;;;;;;32.75;31.00;;;;;;;;4991743;28;11590;-77
2024/03/16 21:05:12;;;;;;;;;31.00;29.50;;;;;;;;4991682;28;8820;-72
2024/03/16 21:07:37;;;;;;;;;37.75;31.50;;;;;;;;4991416;28;8805;-74
2024/03/16 21:10:06;;;;;;;;;41.25;34.75;;;;;;;;4982984;28;11525;-74
2024/03/16 21:12:34;;;;;;;;;38.75;32.50;;;;;;;;4983791;28;8846;-75
2024/03/16 21:15:02;;;;;;;;;40.25;35.00;;;;;;;;4984559;28;11556;-73
2024/03/16 21:17:29;;;;;;;;;32.75;32.75;;;;;;;;4989886;28;11683;-73
2024/03/16 21:19:55;;;;;;;;;46.75;39.50;;;;;;;;4990154;28;11675;-76
2024/03/16 21:22:21;;;;;;;;;38.25;36.75;;;;;;;;4991063;28;11563;-74
2024/03/16 21:24:46;;;;;;;;;35.00;31.50;;;;;;;;4986449;28;8817;-73
2024/03/16 21:27:12;;;;;;;;;42.50;40.00;;;;;;;;4981702;28;11662;-73
2024/03/16 21:29:37;;;;;;;;;38.25;35.00;;;;;;;;4983873;28;8793;-73
2024/03/16 21:32:02;;;;;;;;;45.00;38.75;;;;;;;;4986249;28;8815;-75
2024/03/16 21:34:28;;;;;;;;;47.25;40.00;;;;;;;;4991333;28;8809;-72
2024/03/16 21:36:53;;;;;;;;;34.25;28.00;;;;;;;;4990974;28;8797;-73
2024/03/16 21:39:18;;;;;;;;;27.75;27.50;;;;;;;;4991356;28;8895;-74
2024/03/16 21:41:43;;;;;;;;;29.25;29.25;;;;;;;;4981886;28;8822;-74
2024/03/16 21:44:09;;;;;;;;;31.50;28.25;;;;;;;;4981806;28;8868;-74
2024/03/16 21:46:34;;;;;;;;;31.00;27.50;;;;;;;;4979908;28;8780;-74
2024/03/16 21:48:59;;;;;;;;;29.75;29.50;;;;;;;;4981071;28;8789;-74
2024/03/16 21:51:24;;;;;;;;;30.50;25.25;;;;;;;;4980980;28;8832;-73
2024/03/16 21:53:50;;;;;;;;;28.75;25.50;;;;;;;;4979775;28;9632;-74
2024/03/16 21:56:17;;;;;;;;;27.00;23.00;;;;;;;;4973952;28;8796;-73
2024/03/16 21:58:42;;;;;;;;;31.25;25.50;;;;;;;;4979397;28;8807;-75
2024/03/16 22:01:07;;;;;;;;;26.25;25.50;;;;;;;;4981851;28;11692;-72
2024/03/16 22:03:33;;;;;;;;;29.00;24.75;;;;;;;;4980365;28;8825;-73
2024/03/16 22:06:01;;;;;;;;;27.75;25.25;;;;;;;;4981370;28;8943;-74
2024/03/16 22:08:27;;;;;;;;;28.00;25.50;;;;;;;;4973928;28;8902;-72
2024/03/16 22:10:52;;;;;;;;;34.50;29.50;;;;;;;;4971321;28;11733;-75
2024/03/16 22:13:17;;;;;;;;;30.75;26.75;;;;;;;;4971422;28;8818;-73
2024/03/16 22:15:42;;;;;;;;;33.00;28.75;;;;;;;;4971468;28;8796;-74
2024/03/16 22:18:08;;;;;;;;;35.50;35.00;;;;;;;;4971298;28;8849;-73
2024/03/16 22:20:33;;;;;;;;;35.00;34.75;;;;;;;;4971073;28;8811;-73
2024/03/16 22:22:59;;;;;;;;;35.00;33.00;;;;;;;;4971226;28;9647;-73
2024/03/16 22:25:25;;;;;;;;;32.50;28.00;;;;;;;;4971285;28;8792;-73
2024/03/16 22:27:50;;;;;;;;;37.50;34.00;;;;;;;;4971287;28;8795;-74
2024/03/16 22:30:15;;;;;;;;;42.25;36.75;;;;;;;;4983665;28;11666;-73
2024/03/16 22:32:41;;;;;;;;;46.75;41.25;;;;;;;;4990765;28;8788;-74
2024/03/16 22:35:07;;;;;;;;;48.00;41.25;;;;;;;;4989413;28;8859;-73
2024/03/16 22:37:32;;;;;;;;;31.00;26.50;;;;;;;;4989348;28;11546;-76
2024/03/16 22:39:58;;;;;;;;;44.50;38.00;;;;;;;;4990792;28;8793;-72
2024/03/16 22:42:24;;;;;;;;;46.00;40.33;;;;;;;;4989433;28;8824;-76
2024/03/16 22:44:50;;;;;;;;;44.75;37.75;;;;;;;;4990813;28;8813;-76
2024/03/16 22:47:15;;;;;;;;;40.75;37.75;;;;;;;;4989472;28;12354;-75
2024/03/16 22:49:41;;;;;;;;;42.75;37.50;;;;;;;;4989249;28;8809;-75
2024/03/16 22:52:06;;;;;;;;;42.00;37.50;;;;;;;;4990910;28;8805;-76
2024/03/16 22:54:31;;;;;;;;;45.25;38.00;;;;;;;;4990797;28;8793;-75
2024/03/16 22:56:56;;;;;;;;;45.50;37.75;;;;;;;;4990530;28;8832;-75
2024/03/16 22:59:22;;;;;;;;;47.50;40.75;;;;;;;;4990589;28;8781;-75
2024/03/16 23:01:47;;;;;;;;;33.50;31.25;;;;;;;;4993479;28;8823;-75
2024/03/16 23:04:12;;;;;;;;;41.00;36.50;;;;;;;;4994137;28;8821;-75